Aérodrome :
LOGIN :

S'inscrire | Disclaimer

   EN    FR    IT 

 










Légende :    VFR   VFR Marginal   IFR   IFR Intensif   IFR Très Intensif
Visi : 
Plafond : 
>= 8 km
>= 3000ft
5 à 8 km
1000 à 3000 ft
1500m à 5 km
500 à 1000 ft
800 à 1500m
200 à 500 ft
< 800m
< 200 ft
Symboles :   Orages  Brouillard  Fortes neiges  Fortes précipitations  Vent > 20 kt
SIGMETs :   Divers  Orages  Givrage  Turbulence  Onde Orograph.  Cendres Volcan.






- Altitude de l'aérodrome : 82 ft
- Code IATA : QIE


LFMI - Istres

DERNIER METAR :
  • 272100Z AUTO 33009KT CAVOK 08/07 Q1013 TEMPO 33020G30KT

METARs EXPIRÉS :
  • 272030Z AUTO 33008KT 300V010 CAVOK 08/07 Q1012 NOSIG
  • 272000Z AUTO 36005KT 330V030 CAVOK 08/06 Q1011 BECMG 32015KT
  • 271930Z AUTO 30007KT CAVOK 11/08 Q1011 NOSIG
  • 271900Z AUTO 30007KT 270V360 CAVOK 12/08 Q1010 NOSIG
  • 271830Z AUTO 25008KT CAVOK 12/09 Q1009 BECMG 32015KT
  • 271800Z AUTO 25014KT CAVOK 13/09 Q1009 NOSIG

TAF TAF LFMI
Valide du 27 à 21h jusqu'au 28 à 21h UTC


272000Z 2721/2821 32015KT CAVOK
TEMPO 2721/2807 33020G30KT
BECMG 2814/2816 VRB05KT



MET'MAP, la Météo Aéronautique d'un coup d'oeil ! - Copyright ORBIFLY Décembre 2007 - Disclaimer

ORBIFLY MET'MAP TEAM :

Programmation & Développement : Alexandra Zaïnal
Sur une idée originale de : Baudouin d'Aumeries
Assistance à la programmation : Marc-Olivier Méhu
Soutien technique & logistique : Manuel Goepfert

Contact : metmap@orbifly.com




SOURCES & CREDITS :

   NOAA